sensor_id;sensor_type;location;lat;lon;timestamp;temperature;humidity
59301;DHT22;45073;52.740;6.784;2022-10-16T00:01:19;13.80;99.90
59301;DHT22;45073;52.740;6.784;2022-10-16T00:03:46;13.80;99.90
59301;DHT22;45073;52.740;6.784;2022-10-16T00:06:12;13.80;99.90
59301;DHT22;45073;52.740;6.784;2022-10-16T00:08:39;13.70;99.90
59301;DHT22;45073;52.740;6.784;2022-10-16T00:11:11;13.80;99.90
59301;DHT22;45073;52.740;6.784;2022-10-16T00:13:39;13.80;99.90
59301;DHT22;45073;52.740;6.784;2022-10-16T00:16:06;13.70;99.90
59301;DHT22;45073;52.740;6.784;2022-10-16T00:18:32;13.70;99.90
59301;DHT22;45073;52.740;6.784;2022-10-16T00:21:06;13.80;99.90
59301;DHT22;45073;52.740;6.784;2022-10-16T00:23:32;13.70;99.90
59301;DHT22;45073;52.740;6.784;2022-10-16T00:26:01;13.60;99.90
59301;DHT22;45073;52.740;6.784;2022-10-16T00:28:27;13.60;99.90
59301;DHT22;45073;52.740;6.784;2022-10-16T00:30:54;13.70;99.90
59301;DHT22;45073;52.740;6.784;2022-10-16T00:33:20;13.60;99.90
59301;DHT22;45073;52.740;6.784;2022-10-16T00:35:46;13.60;99.90
59301;DHT22;45073;52.740;6.784;2022-10-16T00:38:12;13.60;99.90
59301;DHT22;45073;52.740;6.784;2022-10-16T00:40:37;13.60;99.90
59301;DHT22;45073;52.740;6.784;2022-10-16T00:43:12;13.60;99.90
59301;DHT22;45073;52.740;6.784;2022-10-16T00:45:38;13.60;99.90
59301;DHT22;45073;52.740;6.784;2022-10-16T00:48:04;13.60;99.90
59301;DHT22;45073;52.740;6.784;2022-10-16T00:50:31;13.60;99.90
59301;DHT22;45073;52.740;6.784;2022-10-16T00:52:59;13.50;99.90
59301;DHT22;45073;52.740;6.784;2022-10-16T00:55:26;13.50;99.90
59301;DHT22;45073;52.740;6.784;2022-10-16T00:57:54;13.50;99.90
59301;DHT22;45073;52.740;6.784;2022-10-16T01:00:25;13.50;99.90
59301;DHT22;45073;52.740;6.784;2022-10-16T01:03:01;13.50;99.90
59301;DHT22;45073;52.740;6.784;2022-10-16T01:05:39;13.40;99.90
59301;DHT22;45073;52.740;6.784;2022-10-16T01:08:13;13.40;99.90
59301;DHT22;45073;52.740;6.784;2022-10-16T01:11:00;13.50;99.90
59301;DHT22;45073;52.740;6.784;2022-10-16T01:13:27;13.50;99.90
59301;DHT22;45073;52.740;6.784;2022-10-16T01:18:52;13.40;99.90
59301;DHT22;45073;52.740;6.784;2022-10-16T01:21:27;13.40;99.90
59301;DHT22;45073;52.740;6.784;2022-10-16T01:24:29;13.30;99.90
59301;DHT22;45073;52.740;6.784;2022-10-16T01:29:36;13.40;99.90
59301;DHT22;45073;52.740;6.784;2022-10-16T01:32:10;13.40;99.90
59301;DHT22;45073;52.740;6.784;2022-10-16T01:34:49;13.50;99.90
59301;DHT22;45073;52.740;6.784;2022-10-16T01:37:32;13.40;99.90
59301;DHT22;45073;52.740;6.784;2022-10-16T01:39:59;13.40;99.90
59301;DHT22;45073;52.740;6.784;2022-10-16T01:42:33;13.40;99.90
59301;DHT22;45073;52.740;6.784;2022-10-16T01:45:00;13.40;99.90
59301;DHT22;45073;52.740;6.784;2022-10-16T01:47:27;13.40;99.90
59301;DHT22;45073;52.740;6.784;2022-10-16T01:49:55;13.50;99.90
59301;DHT22;45073;52.740;6.784;2022-10-16T01:52:25;13.40;99.90
59301;DHT22;45073;52.740;6.784;2022-10-16T01:54:54;13.40;99.90
59301;DHT22;45073;52.740;6.784;2022-10-16T01:57:21;13.40;99.90
59301;DHT22;45073;52.740;6.784;2022-10-16T01:59:52;13.40;99.90
59301;DHT22;45073;52.740;6.784;2022-10-16T02:02:20;13.50;99.90
59301;DHT22;45073;52.740;6.784;2022-10-16T02:04:57;13.40;99.90
59301;DHT22;45073;52.740;6.784;2022-10-16T02:07:23;13.40;99.90
59301;DHT22;45073;52.740;6.784;2022-10-16T02:09:49;13.50;99.90
59301;DHT22;45073;52.740;6.784;2022-10-16T02:12:27;13.50;99.90
59301;DHT22;45073;52.740;6.784;2022-10-16T02:14:53;13.50;99.90
59301;DHT22;45073;52.740;6.784;2022-10-16T02:17:20;13.50;99.90
59301;DHT22;45073;52.740;6.784;2022-10-16T02:19:48;13.50;99.90
59301;DHT22;45073;52.740;6.784;2022-10-16T02:22:33;13.50;99.90
59301;DHT22;45073;52.740;6.784;2022-10-16T02:25:06;13.50;99.90
59301;DHT22;45073;52.740;6.784;2022-10-16T02:28:13;13.50;99.90
59301;DHT22;45073;52.740;6.784;2022-10-16T02:30:57;13.60;99.90
59301;DHT22;45073;52.740;6.784;2022-10-16T02:33:25;13.50;99.90
59301;DHT22;45073;52.740;6.784;2022-10-16T02:35:52;13.50;99.90
59301;DHT22;45073;52.740;6.784;2022-10-16T02:38:20;13.60;99.90
59301;DHT22;45073;52.740;6.784;2022-10-16T02:40:46;13.60;99.90
59301;DHT22;45073;52.740;6.784;2022-10-16T02:43:12;13.60;99.90
59301;DHT22;45073;52.740;6.784;2022-10-16T02:45:37;13.60;99.90
59301;DHT22;45073;52.740;6.784;2022-10-16T02:48:03;13.60;99.90
59301;DHT22;45073;52.740;6.784;2022-10-16T02:50:29;13.60;99.90
59301;DHT22;45073;52.740;6.784;2022-10-16T02:52:54;13.70;99.90
59301;DHT22;45073;52.740;6.784;2022-10-16T02:55:20;13.70;99.90
59301;DHT22;45073;52.740;6.784;2022-10-16T02:57:45;13.70;99.90
59301;DHT22;45073;52.740;6.784;2022-10-16T03:00:14;13.70;99.90
59301;DHT22;45073;52.740;6.784;2022-10-16T03:02:40;13.80;99.90
59301;DHT22;45073;52.740;6.784;2022-10-16T03:05:06;13.70;99.90
59301;DHT22;45073;52.740;6.784;2022-10-16T03:07:32;13.70;99.90
59301;DHT22;45073;52.740;6.784;2022-10-16T03:09:57;13.70;99.90
59301;DHT22;45073;52.740;6.784;2022-10-16T03:12:26;13.70;99.90
59301;DHT22;45073;52.740;6.784;2022-10-16T03:14:52;13.80;99.90
59301;DHT22;45073;52.740;6.784;2022-10-16T03:17:18;13.80;99.90
59301;DHT22;45073;52.740;6.784;2022-10-16T03:19:44;13.80;99.90
59301;DHT22;45073;52.740;6.784;2022-10-16T03:22:10;13.90;99.90
59301;DHT22;45073;52.740;6.784;2022-10-16T03:24:35;13.80;99.90
59301;DHT22;45073;52.740;6.784;2022-10-16T03:27:01;13.80;99.90
59301;DHT22;45073;52.740;6.784;2022-10-16T03:29:26;13.90;99.90
59301;DHT22;45073;52.740;6.784;2022-10-16T03:31:53;13.90;99.90
59301;DHT22;45073;52.740;6.784;2022-10-16T03:34:18;13.80;99.90
59301;DHT22;45073;52.740;6.784;2022-10-16T03:36:44;13.80;99.90
59301;DHT22;45073;52.740;6.784;2022-10-16T03:39:09;13.80;99.90
59301;DHT22;45073;52.740;6.784;2022-10-16T03:41:35;13.80;99.90
59301;DHT22;45073;52.740;6.784;2022-10-16T03:44:00;13.80;99.90
59301;DHT22;45073;52.740;6.784;2022-10-16T03:46:26;13.90;99.90
59301;DHT22;45073;52.740;6.784;2022-10-16T03:48:54;13.90;99.90
59301;DHT22;45073;52.740;6.784;2022-10-16T03:51:20;13.80;99.90
59301;DHT22;45073;52.740;6.784;2022-10-16T03:53:45;13.80;99.90
59301;DHT22;45073;52.740;6.784;2022-10-16T03:56:11;13.80;99.90
59301;DHT22;45073;52.740;6.784;2022-10-16T03:58:36;13.80;99.90
59301;DHT22;45073;52.740;6.784;2022-10-16T04:01:02;13.80;99.90
59301;DHT22;45073;52.740;6.784;2022-10-16T04:03:28;13.80;99.90
59301;DHT22;45073;52.740;6.784;2022-10-16T04:05:53;13.70;99.90
59301;DHT22;45073;52.740;6.784;2022-10-16T04:08:19;13.70;99.90
59301;DHT22;45073;52.740;6.784;2022-10-16T04:10:44;13.70;99.90
59301;DHT22;45073;52.740;6.784;2022-10-16T04:13:10;13.80;99.90
59301;DHT22;45073;52.740;6.784;2022-10-16T04:15:36;13.70;99.90
59301;DHT22;45073;52.740;6.784;2022-10-16T04:18:02;13.70;99.90
59301;DHT22;45073;52.740;6.784;2022-10-16T04:20:27;13.70;99.90
59301;DHT22;45073;52.740;6.784;2022-10-16T04:22:53;13.60;99.90
59301;DHT22;45073;52.740;6.784;2022-10-16T04:25:18;13.70;99.90
59301;DHT22;45073;52.740;6.784;2022-10-16T04:27:44;13.60;99.90
59301;DHT22;45073;52.740;6.784;2022-10-16T04:30:10;13.60;99.90
59301;DHT22;45073;52.740;6.784;2022-10-16T04:32:35;13.70;99.90
59301;DHT22;45073;52.740;6.784;2022-10-16T04:35:01;13.60;99.90
59301;DHT22;45073;52.740;6.784;2022-10-16T04:37:27;13.70;99.90
59301;DHT22;45073;52.740;6.784;2022-10-16T04:39:53;13.70;99.90
59301;DHT22;45073;52.740;6.784;2022-10-16T04:42:19;13.70;99.90
59301;DHT22;45073;52.740;6.784;2022-10-16T04:44:45;13.70;99.90
59301;DHT22;45073;52.740;6.784;2022-10-16T04:47:10;13.60;99.90
59301;DHT22;45073;52.740;6.784;2022-10-16T04:49:36;13.60;99.90
59301;DHT22;45073;52.740;6.784;2022-10-16T04:52:02;13.60;99.90
59301;DHT22;45073;52.740;6.784;2022-10-16T04:54:27;13.70;99.90
59301;DHT22;45073;52.740;6.784;2022-10-16T04:56:53;13.60;99.90
59301;DHT22;45073;52.740;6.784;2022-10-16T04:59:19;13.60;99.90
59301;DHT22;45073;52.740;6.784;2022-10-16T05:01:45;13.60;99.90
59301;DHT22;45073;52.740;6.784;2022-10-16T05:04:11;13.60;99.90
59301;DHT22;45073;52.740;6.784;2022-10-16T05:06:37;13.60;99.90
59301;DHT22;45073;52.740;6.784;2022-10-16T05:09:07;13.50;99.90
59301;DHT22;45073;52.740;6.784;2022-10-16T05:11:34;13.60;99.90
59301;DHT22;45073;52.740;6.784;2022-10-16T05:14:00;13.60;99.90
59301;DHT22;45073;52.740;6.784;2022-10-16T05:16:26;13.50;99.90
59301;DHT22;45073;52.740;6.784;2022-10-16T05:18:52;13.60;99.90
59301;DHT22;45073;52.740;6.784;2022-10-16T05:21:18;13.50;99.90
59301;DHT22;45073;52.740;6.784;2022-10-16T05:23:43;13.50;99.90
59301;DHT22;45073;52.740;6.784;2022-10-16T05:26:09;13.50;99.90
59301;DHT22;45073;52.740;6.784;2022-10-16T05:28:34;13.50;99.90
59301;DHT22;45073;52.740;6.784;2022-10-16T05:31:04;13.40;99.90
59301;DHT22;45073;52.740;6.784;2022-10-16T05:33:30;13.50;99.90
59301;DHT22;45073;52.740;6.784;2022-10-16T05:35:56;13.50;99.90
59301;DHT22;45073;52.740;6.784;2022-10-16T05:38:21;13.40;99.90
59301;DHT22;45073;52.740;6.784;2022-10-16T05:40:53;13.40;99.90
59301;DHT22;45073;52.740;6.784;2022-10-16T05:43:19;13.40;99.90
59301;DHT22;45073;52.740;6.784;2022-10-16T05:45:57;13.30;99.90
59301;DHT22;45073;52.740;6.784;2022-10-16T05:48:23;13.30;99.90
59301;DHT22;45073;52.740;6.784;2022-10-16T05:50:59;13.30;99.90
59301;DHT22;45073;52.740;6.784;2022-10-16T05:53:25;13.30;99.90
59301;DHT22;45073;52.740;6.784;2022-10-16T05:55:52;13.30;99.90
59301;DHT22;45073;52.740;6.784;2022-10-16T05:58:18;13.30;99.90
59301;DHT22;45073;52.740;6.784;2022-10-16T06:00:43;13.30;99.90
59301;DHT22;45073;52.740;6.784;2022-10-16T06:03:09;13.30;99.90
59301;DHT22;45073;52.740;6.784;2022-10-16T06:05:35;13.30;99.90
59301;DHT22;45073;52.740;6.784;2022-10-16T06:08:00;13.30;99.90
59301;DHT22;45073;52.740;6.784;2022-10-16T06:10:26;13.20;99.90
59301;DHT22;45073;52.740;6.784;2022-10-16T06:12:51;13.20;99.90
59301;DHT22;45073;52.740;6.784;2022-10-16T06:15:17;13.30;99.90
59301;DHT22;45073;52.740;6.784;2022-10-16T06:17:42;13.30;99.90
59301;DHT22;45073;52.740;6.784;2022-10-16T06:20:08;13.40;99.90
59301;DHT22;45073;52.740;6.784;2022-10-16T06:22:33;13.30;99.90
59301;DHT22;45073;52.740;6.784;2022-10-16T06:24:59;13.30;99.90
59301;DHT22;45073;52.740;6.784;2022-10-16T06:27:25;13.30;99.90
59301;DHT22;45073;52.740;6.784;2022-10-16T06:29:50;13.40;99.90
59301;DHT22;45073;52.740;6.784;2022-10-16T06:32:16;13.40;99.90
59301;DHT22;45073;52.740;6.784;2022-10-16T06:34:41;13.40;99.90
59301;DHT22;45073;52.740;6.784;2022-10-16T06:37:07;13.30;99.90
59301;DHT22;45073;52.740;6.784;2022-10-16T06:39:32;13.40;99.90
59301;DHT22;45073;52.740;6.784;2022-10-16T06:41:58;13.30;99.90
59301;DHT22;45073;52.740;6.784;2022-10-16T06:44:24;13.40;99.90
59301;DHT22;45073;52.740;6.784;2022-10-16T06:46:49;13.40;99.90
59301;DHT22;45073;52.740;6.784;2022-10-16T06:49:15;13.50;99.90
59301;DHT22;45073;52.740;6.784;2022-10-16T06:51:46;13.50;99.90
59301;DHT22;45073;52.740;6.784;2022-10-16T06:54:12;13.40;99.90
59301;DHT22;45073;52.740;6.784;2022-10-16T06:56:37;13.40;99.90
59301;DHT22;45073;52.740;6.784;2022-10-16T06:59:03;13.40;99.90
59301;DHT22;45073;52.740;6.784;2022-10-16T07:01:29;13.50;99.90
59301;DHT22;45073;52.740;6.784;2022-10-16T07:03:55;13.50;99.90
59301;DHT22;45073;52.740;6.784;2022-10-16T07:06:22;13.50;99.90
59301;DHT22;45073;52.740;6.784;2022-10-16T07:08:49;13.50;99.90
59301;DHT22;45073;52.740;6.784;2022-10-16T07:11:19;13.50;99.90
59301;DHT22;45073;52.740;6.784;2022-10-16T07:13:46;13.60;99.90
59301;DHT22;45073;52.740;6.784;2022-10-16T07:16:17;13.60;99.90
59301;DHT22;45073;52.740;6.784;2022-10-16T07:18:44;13.60;99.90
59301;DHT22;45073;52.740;6.784;2022-10-16T07:21:13;13.60;99.90
59301;DHT22;45073;52.740;6.784;2022-10-16T07:23:39;13.60;99.90
59301;DHT22;45073;52.740;6.784;2022-10-16T07:26:06;13.70;99.90
59301;DHT22;45073;52.740;6.784;2022-10-16T07:28:32;13.60;99.90
59301;DHT22;45073;52.740;6.784;2022-10-16T07:31:02;13.70;99.90
59301;DHT22;45073;52.740;6.784;2022-10-16T07:33:28;13.70;99.90
59301;DHT22;45073;52.740;6.784;2022-10-16T07:35:54;13.70;99.90
59301;DHT22;45073;52.740;6.784;2022-10-16T07:38:20;13.70;99.90
59301;DHT22;45073;52.740;6.784;2022-10-16T07:40:46;13.80;99.90
59301;DHT22;45073;52.740;6.784;2022-10-16T07:43:13;13.80;99.90
59301;DHT22;45073;52.740;6.784;2022-10-16T07:45:47;13.90;99.90
59301;DHT22;45073;52.740;6.784;2022-10-16T07:48:14;14.00;99.90
59301;DHT22;45073;52.740;6.784;2022-10-16T07:50:39;14.00;99.90
59301;DHT22;45073;52.740;6.784;2022-10-16T07:53:05;14.00;99.90
59301;DHT22;45073;52.740;6.784;2022-10-16T07:55:31;14.00;99.90
59301;DHT22;45073;52.740;6.784;2022-10-16T07:57:57;14.00;99.90
59301;DHT22;45073;52.740;6.784;2022-10-16T08:00:22;14.10;99.90
59301;DHT22;45073;52.740;6.784;2022-10-16T08:02:48;14.10;99.90
59301;DHT22;45073;52.740;6.784;2022-10-16T08:05:13;14.10;99.90
59301;DHT22;45073;52.740;6.784;2022-10-16T08:07:39;14.10;99.90
59301;DHT22;45073;52.740;6.784;2022-10-16T08:10:05;14.20;99.90
59301;DHT22;45073;52.740;6.784;2022-10-16T08:12:30;14.20;99.90
59301;DHT22;45073;52.740;6.784;2022-10-16T08:14:56;14.20;99.90
59301;DHT22;45073;52.740;6.784;2022-10-16T08:17:21;14.30;99.90
59301;DHT22;45073;52.740;6.784;2022-10-16T08:19:47;14.30;99.90
59301;DHT22;45073;52.740;6.784;2022-10-16T08:22:15;14.40;99.90
59301;DHT22;45073;52.740;6.784;2022-10-16T08:24:41;14.40;99.90
59301;DHT22;45073;52.740;6.784;2022-10-16T08:27:07;14.40;99.90
59301;DHT22;45073;52.740;6.784;2022-10-16T08:29:34;14.40;99.90
59301;DHT22;45073;52.740;6.784;2022-10-16T08:32:00;14.50;99.90
59301;DHT22;45073;52.740;6.784;2022-10-16T08:34:25;14.40;99.90
59301;DHT22;45073;52.740;6.784;2022-10-16T08:36:53;14.50;99.90
59301;DHT22;45073;52.740;6.784;2022-10-16T08:39:19;14.60;99.90
59301;DHT22;45073;52.740;6.784;2022-10-16T08:47:15;14.70;99.90
59301;DHT22;45073;52.740;6.784;2022-10-16T08:49:53;14.80;99.90
59301;DHT22;45073;52.740;6.784;2022-10-16T08:52:20;14.80;99.90
59301;DHT22;45073;52.740;6.784;2022-10-16T08:54:48;14.80;99.90
59301;DHT22;45073;52.740;6.784;2022-10-16T08:57:23;14.90;99.90
59301;DHT22;45073;52.740;6.784;2022-10-16T08:59:49;15.00;99.90
59301;DHT22;45073;52.740;6.784;2022-10-16T09:02:39;15.00;99.90
59301;DHT22;45073;52.740;6.784;2022-10-16T09:08:25;15.00;99.90
59301;DHT22;45073;52.740;6.784;2022-10-16T09:13:50;15.10;99.90
59301;DHT22;45073;52.740;6.784;2022-10-16T09:16:24;15.00;99.90
59301;DHT22;45073;52.740;6.784;2022-10-16T09:19:14;15.20;99.90
59301;DHT22;45073;52.740;6.784;2022-10-16T09:21:45;15.30;99.90
59301;DHT22;45073;52.740;6.784;2022-10-16T09:24:15;15.40;99.90
59301;DHT22;45073;52.740;6.784;2022-10-16T09:26:41;15.50;99.90
59301;DHT22;45073;52.740;6.784;2022-10-16T09:29:11;15.50;99.90
59301;DHT22;45073;52.740;6.784;2022-10-16T09:31:37;15.60;99.90
59301;DHT22;45073;52.740;6.784;2022-10-16T09:34:04;15.60;99.90
59301;DHT22;45073;52.740;6.784;2022-10-16T09:36:39;15.70;99.90
59301;DHT22;45073;52.740;6.784;2022-10-16T09:39:08;15.80;99.90
59301;DHT22;45073;52.740;6.784;2022-10-16T09:41:36;15.80;99.90
59301;DHT22;45073;52.740;6.784;2022-10-16T09:44:04;15.90;99.90
59301;DHT22;45073;52.740;6.784;2022-10-16T09:46:34;16.00;99.90
59301;DHT22;45073;52.740;6.784;2022-10-16T09:49:03;16.00;99.90
59301;DHT22;45073;52.740;6.784;2022-10-16T09:51:35;16.10;99.90
59301;DHT22;45073;52.740;6.784;2022-10-16T09:54:13;16.10;99.90
59301;DHT22;45073;52.740;6.784;2022-10-16T09:56:39;16.10;99.90
59301;DHT22;45073;52.740;6.784;2022-10-16T09:59:19;16.20;99.90
59301;DHT22;45073;52.740;6.784;2022-10-16T10:04:16;16.20;99.90
59301;DHT22;45073;52.740;6.784;2022-10-16T10:06:50;16.30;99.90
59301;DHT22;45073;52.740;6.784;2022-10-16T10:09:28;16.40;99.90
59301;DHT22;45073;52.740;6.784;2022-10-16T10:12:03;16.50;99.90
59301;DHT22;45073;52.740;6.784;2022-10-16T10:14:44;16.50;99.90
59301;DHT22;45073;52.740;6.784;2022-10-16T10:17:17;16.60;99.90
59301;DHT22;45073;52.740;6.784;2022-10-16T10:19:53;16.60;99.90
59301;DHT22;45073;52.740;6.784;2022-10-16T10:22:40;16.60;99.90
59301;DHT22;45073;52.740;6.784;2022-10-16T10:42:00;17.00;99.90
59301;DHT22;45073;52.740;6.784;2022-10-16T10:44:36;17.10;99.90
59301;DHT22;45073;52.740;6.784;2022-10-16T10:47:12;17.00;99.90
59301;DHT22;45073;52.740;6.784;2022-10-16T11:00:57;17.10;99.90
59301;DHT22;45073;52.740;6.784;2022-10-16T11:04:15;17.10;99.90
59301;DHT22;45073;52.740;6.784;2022-10-16T11:06:44;17.20;99.90
59301;DHT22;45073;52.740;6.784;2022-10-16T11:09:25;17.40;99.90
59301;DHT22;45073;52.740;6.784;2022-10-16T11:11:59;17.50;99.90
59301;DHT22;45073;52.740;6.784;2022-10-16T11:14:30;17.70;99.90
59301;DHT22;45073;52.740;6.784;2022-10-16T11:17:06;17.70;99.90
59301;DHT22;45073;52.740;6.784;2022-10-16T11:22:10;17.90;99.90
59301;DHT22;45073;52.740;6.784;2022-10-16T11:24:48;17.90;99.90
59301;DHT22;45073;52.740;6.784;2022-10-16T11:27:20;17.80;99.90
59301;DHT22;45073;52.740;6.784;2022-10-16T11:29:53;17.70;99.90
59301;DHT22;45073;52.740;6.784;2022-10-16T11:32:28;17.70;99.90
59301;DHT22;45073;52.740;6.784;2022-10-16T11:35:02;17.50;99.90
59301;DHT22;45073;52.740;6.784;2022-10-16T11:37:36;17.40;99.90
59301;DHT22;45073;52.740;6.784;2022-10-16T11:40:24;17.40;99.90
59301;DHT22;45073;52.740;6.784;2022-10-16T11:43:13;17.30;99.90
59301;DHT22;45073;52.740;6.784;2022-10-16T11:45:46;17.40;99.90
59301;DHT22;45073;52.740;6.784;2022-10-16T11:48:20;17.50;99.90
59301;DHT22;45073;52.740;6.784;2022-10-16T11:50:59;17.50;99.90
59301;DHT22;45073;52.740;6.784;2022-10-16T11:56:20;17.70;99.90
59301;DHT22;45073;52.740;6.784;2022-10-16T11:59:38;17.80;99.90
59301;DHT22;45073;52.740;6.784;2022-10-16T12:04:50;18.00;99.90
59301;DHT22;45073;52.740;6.784;2022-10-16T12:07:30;18.20;99.90
59301;DHT22;45073;52.740;6.784;2022-10-16T12:09:58;18.30;99.90
59301;DHT22;45073;52.740;6.784;2022-10-16T12:15:23;18.50;99.90
59301;DHT22;45073;52.740;6.784;2022-10-16T12:17:48;18.60;98.70
59301;DHT22;45073;52.740;6.784;2022-10-16T12:23:01;18.50;97.60
59301;DHT22;45073;52.740;6.784;2022-10-16T12:25:31;18.50;97.30
59301;DHT22;45073;52.740;6.784;2022-10-16T12:28:00;18.60;97.20
59301;DHT22;45073;52.740;6.784;2022-10-16T12:30:27;18.60;97.80
59301;DHT22;45073;52.740;6.784;2022-10-16T12:32:56;18.70;99.60
59301;DHT22;45073;52.740;6.784;2022-10-16T12:35:25;18.80;98.40
59301;DHT22;45073;52.740;6.784;2022-10-16T12:37:52;18.90;96.20
59301;DHT22;45073;52.740;6.784;2022-10-16T12:40:25;19.10;94.10
59301;DHT22;45073;52.740;6.784;2022-10-16T12:42:52;19.20;93.30
59301;DHT22;45073;52.740;6.784;2022-10-16T12:45:33;19.40;91.50
59301;DHT22;45073;52.740;6.784;2022-10-16T12:48:01;19.60;88.10
59301;DHT22;45073;52.740;6.784;2022-10-16T12:50:38;19.90;86.90
59301;DHT22;45073;52.740;6.784;2022-10-16T12:53:18;20.70;84.10
59301;DHT22;45073;52.740;6.784;2022-10-16T12:58:51;22.20;69.40
59301;DHT22;45073;52.740;6.784;2022-10-16T13:01:32;22.70;70.30
59301;DHT22;45073;52.740;6.784;2022-10-16T13:04:42;23.10;65.50
59301;DHT22;45073;52.740;6.784;2022-10-16T13:10:03;23.80;62.50
59301;DHT22;45073;52.740;6.784;2022-10-16T13:12:50;24.40;61.20
59301;DHT22;45073;52.740;6.784;2022-10-16T13:15:19;25.10;59.00
59301;DHT22;45073;52.740;6.784;2022-10-16T13:18:09;25.00;59.20
59301;DHT22;45073;52.740;6.784;2022-10-16T13:23:34;25.70;57.30
59301;DHT22;45073;52.740;6.784;2022-10-16T13:28:34;25.30;56.00
59301;DHT22;45073;52.740;6.784;2022-10-16T13:31:01;25.10;56.90
59301;DHT22;45073;52.740;6.784;2022-10-16T13:35:58;25.20;55.50
59301;DHT22;45073;52.740;6.784;2022-10-16T13:38:26;24.80;55.90
59301;DHT22;45073;52.740;6.784;2022-10-16T13:41:02;24.40;56.30
59301;DHT22;45073;52.740;6.784;2022-10-16T13:43:41;23.80;58.00
59301;DHT22;45073;52.740;6.784;2022-10-16T13:46:19;23.30;58.90
59301;DHT22;45073;52.740;6.784;2022-10-16T13:48:59;22.70;59.80
59301;DHT22;45073;52.740;6.784;2022-10-16T13:51:25;22.40;61.90
59301;DHT22;45073;52.740;6.784;2022-10-16T13:53:51;22.20;61.50
59301;DHT22;45073;52.740;6.784;2022-10-16T13:56:19;22.10;61.60
59301;DHT22;45073;52.740;6.784;2022-10-16T13:58:45;22.00;62.80
59301;DHT22;45073;52.740;6.784;2022-10-16T14:01:22;21.90;62.40
59301;DHT22;45073;52.740;6.784;2022-10-16T14:03:49;21.60;62.40
59301;DHT22;45073;52.740;6.784;2022-10-16T14:06:18;21.40;63.70
59301;DHT22;45073;52.740;6.784;2022-10-16T14:09:00;21.30;63.90
59301;DHT22;45073;52.740;6.784;2022-10-16T14:11:27;21.20;64.90
59301;DHT22;45073;52.740;6.784;2022-10-16T14:13:53;21.50;64.70
59301;DHT22;45073;52.740;6.784;2022-10-16T14:16:25;21.70;65.90
59301;DHT22;45073;52.740;6.784;2022-10-16T14:18:58;21.70;66.20
59301;DHT22;45073;52.740;6.784;2022-10-16T14:21:24;21.60;65.90
59301;DHT22;45073;52.740;6.784;2022-10-16T14:23:52;21.50;67.20
59301;DHT22;45073;52.740;6.784;2022-10-16T14:26:20;21.40;67.40
59301;DHT22;45073;52.740;6.784;2022-10-16T14:28:49;21.40;68.00
59301;DHT22;45073;52.740;6.784;2022-10-16T14:31:36;21.40;66.70
59301;DHT22;45073;52.740;6.784;2022-10-16T14:34:02;21.40;67.10
59301;DHT22;45073;52.740;6.784;2022-10-16T14:36:29;21.30;67.10
59301;DHT22;45073;52.740;6.784;2022-10-16T14:39:04;21.40;68.10
59301;DHT22;45073;52.740;6.784;2022-10-16T14:41:32;21.50;69.10
59301;DHT22;45073;52.740;6.784;2022-10-16T14:44:03;21.80;69.00
59301;DHT22;45073;52.740;6.784;2022-10-16T14:46:36;21.70;67.90
59301;DHT22;45073;52.740;6.784;2022-10-16T14:49:13;21.80;69.90
59301;DHT22;45073;52.740;6.784;2022-10-16T14:51:41;21.80;69.70
59301;DHT22;45073;52.740;6.784;2022-10-16T14:54:09;21.60;68.80
59301;DHT22;45073;52.740;6.784;2022-10-16T14:56:55;21.30;70.00
59301;DHT22;45073;52.740;6.784;2022-10-16T14:59:32;21.20;72.90
59301;DHT22;45073;52.740;6.784;2022-10-16T15:01:59;20.90;69.80
59301;DHT22;45073;52.740;6.784;2022-10-16T15:04:24;20.80;72.00
59301;DHT22;45073;52.740;6.784;2022-10-16T15:06:50;20.60;72.40
59301;DHT22;45073;52.740;6.784;2022-10-16T15:09:15;20.40;73.40
59301;DHT22;45073;52.740;6.784;2022-10-16T15:11:42;20.20;76.20
59301;DHT22;45073;52.740;6.784;2022-10-16T15:14:11;20.10;78.20
59301;DHT22;45073;52.740;6.784;2022-10-16T15:16:38;20.00;80.70
59301;DHT22;45073;52.740;6.784;2022-10-16T15:19:03;19.80;83.70
59301;DHT22;45073;52.740;6.784;2022-10-16T15:21:31;19.80;86.10
59301;DHT22;45073;52.740;6.784;2022-10-16T15:23:58;19.60;87.60
59301;DHT22;45073;52.740;6.784;2022-10-16T15:26:25;19.60;88.00
59301;DHT22;45073;52.740;6.784;2022-10-16T15:28:51;19.50;90.20
59301;DHT22;45073;52.740;6.784;2022-10-16T15:31:17;19.40;89.60
59301;DHT22;45073;52.740;6.784;2022-10-16T15:33:42;19.20;90.50
59301;DHT22;45073;52.740;6.784;2022-10-16T15:36:08;19.20;91.50
59301;DHT22;45073;52.740;6.784;2022-10-16T15:38:33;19.10;91.30
59301;DHT22;45073;52.740;6.784;2022-10-16T15:40:59;19.00;91.70
59301;DHT22;45073;52.740;6.784;2022-10-16T15:43:24;18.90;92.30
59301;DHT22;45073;52.740;6.784;2022-10-16T15:46:05;18.80;93.10
59301;DHT22;45073;52.740;6.784;2022-10-16T15:48:32;18.80;92.80
59301;DHT22;45073;52.740;6.784;2022-10-16T15:50:57;18.70;93.40
59301;DHT22;45073;52.740;6.784;2022-10-16T15:53:23;18.60;93.60
59301;DHT22;45073;52.740;6.784;2022-10-16T15:55:49;18.60;94.30
59301;DHT22;45073;52.740;6.784;2022-10-16T15:58:14;18.50;95.00
59301;DHT22;45073;52.740;6.784;2022-10-16T16:00:40;18.40;94.90
59301;DHT22;45073;52.740;6.784;2022-10-16T16:03:05;18.40;95.00
59301;DHT22;45073;52.740;6.784;2022-10-16T16:05:31;18.30;95.40
59301;DHT22;45073;52.740;6.784;2022-10-16T16:07:58;18.30;96.20
59301;DHT22;45073;52.740;6.784;2022-10-16T16:10:24;18.20;96.20
59301;DHT22;45073;52.740;6.784;2022-10-16T16:12:50;18.20;97.00
59301;DHT22;45073;52.740;6.784;2022-10-16T16:15:19;18.10;97.00
59301;DHT22;45073;52.740;6.784;2022-10-16T16:17:45;18.00;96.90
59301;DHT22;45073;52.740;6.784;2022-10-16T16:20:11;18.00;97.60
59301;DHT22;45073;52.740;6.784;2022-10-16T16:22:37;17.90;98.00
59301;DHT22;45073;52.740;6.784;2022-10-16T16:25:03;17.90;98.60
59301;DHT22;45073;52.740;6.784;2022-10-16T16:27:29;17.80;99.30
59301;DHT22;45073;52.740;6.784;2022-10-16T16:29:58;17.80;99.30
59301;DHT22;45073;52.740;6.784;2022-10-16T16:32:24;17.70;99.20
59301;DHT22;45073;52.740;6.784;2022-10-16T16:34:50;17.60;99.40
59301;DHT22;45073;52.740;6.784;2022-10-16T16:37:15;17.60;99.90
59301;DHT22;45073;52.740;6.784;2022-10-16T16:39:41;17.50;99.90
59301;DHT22;45073;52.740;6.784;2022-10-16T16:42:06;17.50;99.90
59301;DHT22;45073;52.740;6.784;2022-10-16T16:44:33;17.40;99.90
59301;DHT22;45073;52.740;6.784;2022-10-16T16:46:58;17.40;99.90
59301;DHT22;45073;52.740;6.784;2022-10-16T16:49:24;17.30;99.90
59301;DHT22;45073;52.740;6.784;2022-10-16T16:51:50;17.20;99.90
59301;DHT22;45073;52.740;6.784;2022-10-16T16:54:15;17.10;99.90
59301;DHT22;45073;52.740;6.784;2022-10-16T16:56:41;17.10;99.90
59301;DHT22;45073;52.740;6.784;2022-10-16T16:59:17;17.00;99.90